Weather at Annecy-Haute-Savoie-Mont Blanc Airport

Public forecast

Using degrees Celsius for public forecast. Weather courtesy of forecast.io.

Current aviation weather report (METAR) for Annecy-Haute-Savoie-Mont Blanc Airport

Retrieved 2020/09/28 02:30 UTC (5 minutes ago):

LFLP 280230Z AUTO VRB01KT 9999 OVC028 07/06 Q1010

Aviation forecast (TAF) for Annecy-Haute-Savoie-Mont Blanc Airport

Retrieved 2020-09-28 03:00 UTC (0 seconds ago):

TAF LFLP 280200Z 2803/2903 VRB02KT 9999 BKN030 OVC040 PROB30 TEMPO 2803/2808 4000 -DZ BR BECMG 2810/2812 22007KT TEMPO 2819/2903 2000 -RA BR OVC008